Terminal Aerodrome Forecast
Issued by NWS Newport/Morehead City, NC

Home | Current Version | Previous Version | Graphics & Text | Print | Product List | Glossary On
Versions: 1 2 3 4 5 6 7 8 9 10 11 12
000
FTUS42 KMHX 131134
TAFEWN
TAF
KEWN 131134Z 1312/1412 30009G16KT P6SM SKC
     FM131900 23007KT P6SM SKC
     FM140600 23010G17KT P6SM BKN090=

USA.gov is the U.S. government's official web portal to all federal, state and local government web resources and services.